sensor_id;sensor_type;location;lat;lon;timestamp;temperature;humidity
1055;DHT22;516;51.482;7.120;2022-08-03T00:15:04;19.50;99.90
1055;DHT22;516;51.482;7.120;2022-08-03T00:17:30;19.60;99.90
1055;DHT22;516;51.482;7.120;2022-08-03T00:19:55;19.40;99.90
1055;DHT22;516;51.482;7.120;2022-08-03T00:22:21;19.40;99.90
1055;DHT22;516;51.482;7.120;2022-08-03T00:24:47;19.50;99.90
1055;DHT22;516;51.482;7.120;2022-08-03T00:27:12;19.60;99.90
1055;DHT22;516;51.482;7.120;2022-08-03T00:29:38;19.50;99.90
1055;DHT22;516;51.482;7.120;2022-08-03T00:32:04;19.50;99.90
1055;DHT22;516;51.482;7.120;2022-08-03T00:34:29;19.40;99.90
1055;DHT22;516;51.482;7.120;2022-08-03T00:36:56;19.50;99.90
1055;DHT22;516;51.482;7.120;2022-08-03T00:39:21;19.50;99.90
1055;DHT22;516;51.482;7.120;2022-08-03T00:41:47;19.60;99.90
1055;DHT22;516;51.482;7.120;2022-08-03T00:44:13;19.60;99.90
1055;DHT22;516;51.482;7.120;2022-08-03T00:46:38;19.60;99.90
1055;DHT22;516;51.482;7.120;2022-08-03T00:49:04;19.70;99.90
1055;DHT22;516;51.482;7.120;2022-08-03T00:51:30;19.70;99.90
1055;DHT22;516;51.482;7.120;2022-08-03T00:53:56;19.80;99.90
1055;DHT22;516;51.482;7.120;2022-08-03T00:56:22;19.80;99.90
1055;DHT22;516;51.482;7.120;2022-08-03T00:58:47;19.70;99.90
1055;DHT22;516;51.482;7.120;2022-08-03T01:01:13;19.60;99.90
1055;DHT22;516;51.482;7.120;2022-08-03T01:03:39;19.60;99.90
1055;DHT22;516;51.482;7.120;2022-08-03T01:06:22;19.70;99.90
1055;DHT22;516;51.482;7.120;2022-08-03T01:09:14;19.70;99.90
1055;DHT22;516;51.482;7.120;2022-08-03T01:12:00;19.50;99.90
1055;DHT22;516;51.482;7.120;2022-08-03T01:14:43;19.60;99.90
1055;DHT22;516;51.482;7.120;2022-08-03T01:17:24;19.80;99.90
1055;DHT22;516;51.482;7.120;2022-08-03T01:20:01;19.90;99.90
1055;DHT22;516;51.482;7.120;2022-08-03T01:22:39;19.90;99.90
1055;DHT22;516;51.482;7.120;2022-08-03T01:25:33;20.00;99.90
1055;DHT22;516;51.482;7.120;2022-08-03T01:28:43;19.90;99.90
1055;DHT22;516;51.482;7.120;2022-08-03T01:31:16;19.80;99.90
1055;DHT22;516;51.482;7.120;2022-08-03T01:33:48;19.60;99.90
1055;DHT22;516;51.482;7.120;2022-08-03T01:36:22;19.60;99.90
1055;DHT22;516;51.482;7.120;2022-08-03T01:38:53;19.50;99.90
1055;DHT22;516;51.482;7.120;2022-08-03T01:41:24;19.50;99.90
1055;DHT22;516;51.482;7.120;2022-08-03T01:43:52;19.40;99.90
1055;DHT22;516;51.482;7.120;2022-08-03T01:46:19;19.30;99.90
1055;DHT22;516;51.482;7.120;2022-08-03T01:48:47;19.20;99.90
1055;DHT22;516;51.482;7.120;2022-08-03T01:51:16;19.20;99.90
1055;DHT22;516;51.482;7.120;2022-08-03T01:53:43;19.30;99.90
1055;DHT22;516;51.482;7.120;2022-08-03T01:56:11;19.20;99.90
1055;DHT22;516;51.482;7.120;2022-08-03T01:58:37;19.20;99.90
1055;DHT22;516;51.482;7.120;2022-08-03T02:01:04;19.20;99.90
1055;DHT22;516;51.482;7.120;2022-08-03T02:03:33;19.20;99.90
1055;DHT22;516;51.482;7.120;2022-08-03T02:06:01;19.20;99.90
1055;DHT22;516;51.482;7.120;2022-08-03T02:08:28;19.20;99.90
1055;DHT22;516;51.482;7.120;2022-08-03T02:10:56;19.10;99.90
1055;DHT22;516;51.482;7.120;2022-08-03T02:13:24;19.00;99.90
1055;DHT22;516;51.482;7.120;2022-08-03T02:15:51;19.10;99.90
1055;DHT22;516;51.482;7.120;2022-08-03T02:18:17;19.00;99.90
1055;DHT22;516;51.482;7.120;2022-08-03T02:20:44;18.90;99.90
1055;DHT22;516;51.482;7.120;2022-08-03T02:23:10;18.80;99.90
1055;DHT22;516;51.482;7.120;2022-08-03T02:25:43;18.60;99.90
1055;DHT22;516;51.482;7.120;2022-08-03T02:28:14;18.50;99.90
1055;DHT22;516;51.482;7.120;2022-08-03T02:30:43;18.50;99.90
1055;DHT22;516;51.482;7.120;2022-08-03T02:33:40;18.50;99.90
1055;DHT22;516;51.482;7.120;2022-08-03T02:36:07;18.70;99.90
1055;DHT22;516;51.482;7.120;2022-08-03T02:38:37;18.90;99.90
1055;DHT22;516;51.482;7.120;2022-08-03T02:41:08;18.70;99.90
1055;DHT22;516;51.482;7.120;2022-08-03T02:43:39;18.60;99.90
1055;DHT22;516;51.482;7.120;2022-08-03T02:46:06;18.50;99.90
1055;DHT22;516;51.482;7.120;2022-08-03T02:48:35;18.40;99.90
1055;DHT22;516;51.482;7.120;2022-08-03T02:51:02;18.30;99.90
1055;DHT22;516;51.482;7.120;2022-08-03T02:53:29;18.20;99.90
1055;DHT22;516;51.482;7.120;2022-08-03T02:55:57;18.10;99.90
1055;DHT22;516;51.482;7.120;2022-08-03T02:58:24;18.30;99.90
1055;DHT22;516;51.482;7.120;2022-08-03T03:00:51;18.30;99.90
1055;DHT22;516;51.482;7.120;2022-08-03T03:03:18;18.10;99.90
1055;DHT22;516;51.482;7.120;2022-08-03T03:05:45;18.10;99.90
1055;DHT22;516;51.482;7.120;2022-08-03T03:08:13;18.00;99.90
1055;DHT22;516;51.482;7.120;2022-08-03T03:10:40;18.00;99.90
1055;DHT22;516;51.482;7.120;2022-08-03T03:13:06;17.90;99.90
1055;DHT22;516;51.482;7.120;2022-08-03T03:15:34;17.80;99.90
1055;DHT22;516;51.482;7.120;2022-08-03T03:18:01;17.80;99.90
1055;DHT22;516;51.482;7.120;2022-08-03T03:20:28;17.70;99.90
1055;DHT22;516;51.482;7.120;2022-08-03T03:23:00;17.70;99.90
1055;DHT22;516;51.482;7.120;2022-08-03T03:25:35;17.90;99.90
1055;DHT22;516;51.482;7.120;2022-08-03T03:28:01;17.80;99.90
1055;DHT22;516;51.482;7.120;2022-08-03T03:30:27;17.80;99.90
1055;DHT22;516;51.482;7.120;2022-08-03T03:32:54;17.80;99.90
1055;DHT22;516;51.482;7.120;2022-08-03T03:35:21;17.70;99.90
1055;DHT22;516;51.482;7.120;2022-08-03T03:37:47;17.70;99.90
1055;DHT22;516;51.482;7.120;2022-08-03T03:40:13;17.60;99.90
1055;DHT22;516;51.482;7.120;2022-08-03T03:42:39;17.60;99.90
1055;DHT22;516;51.482;7.120;2022-08-03T03:45:06;17.60;99.90
1055;DHT22;516;51.482;7.120;2022-08-03T03:47:33;17.60;99.90
1055;DHT22;516;51.482;7.120;2022-08-03T03:50:01;17.50;99.90
1055;DHT22;516;51.482;7.120;2022-08-03T03:52:27;17.50;99.90
1055;DHT22;516;51.482;7.120;2022-08-03T03:54:53;17.50;99.90
1055;DHT22;516;51.482;7.120;2022-08-03T03:57:18;17.50;99.90
1055;DHT22;516;51.482;7.120;2022-08-03T03:59:44;17.50;99.90
1055;DHT22;516;51.482;7.120;2022-08-03T04:02:11;17.60;99.90
1055;DHT22;516;51.482;7.120;2022-08-03T04:04:37;17.50;99.90
1055;DHT22;516;51.482;7.120;2022-08-03T04:07:43;17.50;99.90
1055;DHT22;516;51.482;7.120;2022-08-03T04:10:30;17.50;99.90
1055;DHT22;516;51.482;7.120;2022-08-03T04:13:17;17.50;99.90
1055;DHT22;516;51.482;7.120;2022-08-03T04:15:44;17.60;99.90
1055;DHT22;516;51.482;7.120;2022-08-03T04:18:13;17.60;99.90
1055;DHT22;516;51.482;7.120;2022-08-03T04:20:43;17.70;99.90
1055;DHT22;516;51.482;7.120;2022-08-03T04:23:11;17.80;99.90
1055;DHT22;516;51.482;7.120;2022-08-03T04:25:39;17.80;99.90
1055;DHT22;516;51.482;7.120;2022-08-03T04:28:06;17.80;99.90
1055;DHT22;516;51.482;7.120;2022-08-03T04:30:35;17.90;99.90
1055;DHT22;516;51.482;7.120;2022-08-03T04:33:02;18.00;99.90
1055;DHT22;516;51.482;7.120;2022-08-03T04:35:30;17.90;99.90
1055;DHT22;516;51.482;7.120;2022-08-03T04:38:01;18.00;99.90
1055;DHT22;516;51.482;7.120;2022-08-03T04:40:33;18.00;99.90
1055;DHT22;516;51.482;7.120;2022-08-03T04:42:59;18.10;99.90
1055;DHT22;516;51.482;7.120;2022-08-03T04:45:27;18.20;99.90
1055;DHT22;516;51.482;7.120;2022-08-03T04:47:53;18.30;99.90
1055;DHT22;516;51.482;7.120;2022-08-03T04:50:20;18.30;99.90
1055;DHT22;516;51.482;7.120;2022-08-03T04:52:46;18.50;99.90
1055;DHT22;516;51.482;7.120;2022-08-03T04:55:12;18.60;99.90
1055;DHT22;516;51.482;7.120;2022-08-03T04:57:49;18.70;99.90
1055;DHT22;516;51.482;7.120;2022-08-03T05:00:15;18.90;99.90
1055;DHT22;516;51.482;7.120;2022-08-03T05:02:42;19.10;99.90
1055;DHT22;516;51.482;7.120;2022-08-03T05:05:08;19.30;99.90
1055;DHT22;516;51.482;7.120;2022-08-03T05:07:34;19.70;99.90
1055;DHT22;516;51.482;7.120;2022-08-03T05:09:59;19.80;99.90
1055;DHT22;516;51.482;7.120;2022-08-03T05:12:25;20.00;99.90
1055;DHT22;516;51.482;7.120;2022-08-03T05:14:50;20.20;99.90
1055;DHT22;516;51.482;7.120;2022-08-03T05:17:16;20.20;99.90
1055;DHT22;516;51.482;7.120;2022-08-03T05:19:43;20.30;99.90
1055;DHT22;516;51.482;7.120;2022-08-03T05:22:09;20.50;99.90
1055;DHT22;516;51.482;7.120;2022-08-03T05:24:35;20.80;99.90
1055;DHT22;516;51.482;7.120;2022-08-03T05:27:00;21.00;99.90
1055;DHT22;516;51.482;7.120;2022-08-03T05:29:26;21.30;99.90
1055;DHT22;516;51.482;7.120;2022-08-03T05:31:51;21.90;99.90
1055;DHT22;516;51.482;7.120;2022-08-03T05:34:17;22.10;99.90
1055;DHT22;516;51.482;7.120;2022-08-03T05:36:43;22.80;99.90
1055;DHT22;516;51.482;7.120;2022-08-03T05:39:08;23.50;99.90
1055;DHT22;516;51.482;7.120;2022-08-03T05:41:34;23.60;97.50
1055;DHT22;516;51.482;7.120;2022-08-03T05:44:00;24.30;97.60
1055;DHT22;516;51.482;7.120;2022-08-03T05:46:27;24.30;85.50
1055;DHT22;516;51.482;7.120;2022-08-03T05:48:52;24.20;87.10
1055;DHT22;516;51.482;7.120;2022-08-03T05:51:18;24.50;81.70
1055;DHT22;516;51.482;7.120;2022-08-03T05:53:44;24.10;76.20
1055;DHT22;516;51.482;7.120;2022-08-03T05:56:10;24.90;76.00
1055;DHT22;516;51.482;7.120;2022-08-03T05:58:36;25.00;65.50
1055;DHT22;516;51.482;7.120;2022-08-03T06:01:02;25.10;68.00
1055;DHT22;516;51.482;7.120;2022-08-03T06:03:28;24.90;56.60
1055;DHT22;516;51.482;7.120;2022-08-03T06:05:54;25.20;62.00
1055;DHT22;516;51.482;7.120;2022-08-03T06:08:21;25.70;54.10
1055;DHT22;516;51.482;7.120;2022-08-03T06:10:47;25.50;54.70
1055;DHT22;516;51.482;7.120;2022-08-03T06:13:13;24.90;56.50
1055;DHT22;516;51.482;7.120;2022-08-03T06:15:39;25.40;56.90
1055;DHT22;516;51.482;7.120;2022-08-03T06:18:04;25.60;48.30
1055;DHT22;516;51.482;7.120;2022-08-03T06:20:30;26.00;48.20
1055;DHT22;516;51.482;7.120;2022-08-03T06:22:56;26.50;43.70
1055;DHT22;516;51.482;7.120;2022-08-03T06:25:21;26.00;41.50
1055;DHT22;516;51.482;7.120;2022-08-03T06:27:47;25.40;42.60
1055;DHT22;516;51.482;7.120;2022-08-03T06:30:13;25.60;44.90
1055;DHT22;516;51.482;7.120;2022-08-03T06:32:39;26.70;39.30
1055;DHT22;516;51.482;7.120;2022-08-03T06:35:06;27.00;37.30
1055;DHT22;516;51.482;7.120;2022-08-03T06:37:46;26.70;36.20
1055;DHT22;516;51.482;7.120;2022-08-03T06:40:14;26.40;38.10
1055;DHT22;516;51.482;7.120;2022-08-03T06:42:41;26.90;40.10
1055;DHT22;516;51.482;7.120;2022-08-03T06:45:07;26.50;33.90
1055;DHT22;516;51.482;7.120;2022-08-03T06:47:39;27.00;33.90
1055;DHT22;516;51.482;7.120;2022-08-03T06:50:06;26.90;33.20
1055;DHT22;516;51.482;7.120;2022-08-03T06:52:32;27.10;30.80
1055;DHT22;516;51.482;7.120;2022-08-03T06:54:58;26.60;30.50
1055;DHT22;516;51.482;7.120;2022-08-03T06:57:24;27.20;31.10
1055;DHT22;516;51.482;7.120;2022-08-03T06:59:49;27.40;31.20
1055;DHT22;516;51.482;7.120;2022-08-03T07:02:16;27.00;29.10
1055;DHT22;516;51.482;7.120;2022-08-03T07:04:43;27.30;29.90
1055;DHT22;516;51.482;7.120;2022-08-03T07:07:09;26.80;25.30
1055;DHT22;516;51.482;7.120;2022-08-03T07:09:34;26.30;29.10
1055;DHT22;516;51.482;7.120;2022-08-03T07:12:00;26.40;30.60
1055;DHT22;516;51.482;7.120;2022-08-03T07:14:27;26.80;31.60
1055;DHT22;516;51.482;7.120;2022-08-03T07:16:53;26.80;28.10
1055;DHT22;516;51.482;7.120;2022-08-03T07:19:19;26.80;27.40
1055;DHT22;516;51.482;7.120;2022-08-03T07:21:45;26.50;30.40
1055;DHT22;516;51.482;7.120;2022-08-03T07:24:11;27.30;30.10
1055;DHT22;516;51.482;7.120;2022-08-03T07:26:37;27.40;29.10
1055;DHT22;516;51.482;7.120;2022-08-03T07:29:03;26.70;30.20
1055;DHT22;516;51.482;7.120;2022-08-03T07:31:28;27.50;29.10
1055;DHT22;516;51.482;7.120;2022-08-03T07:33:54;27.40;24.90
1055;DHT22;516;51.482;7.120;2022-08-03T07:36:21;27.70;28.70
1055;DHT22;516;51.482;7.120;2022-08-03T07:38:46;27.70;23.20
1055;DHT22;516;51.482;7.120;2022-08-03T07:41:12;26.90;22.70
1055;DHT22;516;51.482;7.120;2022-08-03T07:43:38;28.10;24.30
1055;DHT22;516;51.482;7.120;2022-08-03T07:46:03;27.30;23.70
1055;DHT22;516;51.482;7.120;2022-08-03T07:48:29;27.90;22.50
1055;DHT22;516;51.482;7.120;2022-08-03T07:50:55;27.80;22.00
1055;DHT22;516;51.482;7.120;2022-08-03T07:53:20;27.70;23.10
1055;DHT22;516;51.482;7.120;2022-08-03T07:55:46;27.80;21.70
1055;DHT22;516;51.482;7.120;2022-08-03T07:58:12;27.50;19.80
1055;DHT22;516;51.482;7.120;2022-08-03T08:00:41;28.50;19.30
1055;DHT22;516;51.482;7.120;2022-08-03T08:03:06;28.40;19.30
1055;DHT22;516;51.482;7.120;2022-08-03T08:05:33;28.20;16.40
1055;DHT22;516;51.482;7.120;2022-08-03T08:08:00;28.80;16.60
1055;DHT22;516;51.482;7.120;2022-08-03T08:10:26;29.30;15.20
1055;DHT22;516;51.482;7.120;2022-08-03T08:12:53;29.00;15.00
1055;DHT22;516;51.482;7.120;2022-08-03T08:15:19;28.10;13.80
1055;DHT22;516;51.482;7.120;2022-08-03T08:17:47;28.60;13.60
1055;DHT22;516;51.482;7.120;2022-08-03T08:20:34;29.00;14.80
1055;DHT22;516;51.482;7.120;2022-08-03T08:23:02;28.60;12.30
1055;DHT22;516;51.482;7.120;2022-08-03T08:25:28;28.30;13.20
1055;DHT22;516;51.482;7.120;2022-08-03T08:27:55;28.60;13.70
1055;DHT22;516;51.482;7.120;2022-08-03T08:30:22;29.10;13.70
1055;DHT22;516;51.482;7.120;2022-08-03T08:32:49;29.20;11.00
1055;DHT22;516;51.482;7.120;2022-08-03T08:35:15;28.30;13.10
1055;DHT22;516;51.482;7.120;2022-08-03T08:37:41;28.90;13.00
1055;DHT22;516;51.482;7.120;2022-08-03T08:40:08;28.10;11.40
1055;DHT22;516;51.482;7.120;2022-08-03T08:42:36;29.50;11.90
1055;DHT22;516;51.482;7.120;2022-08-03T08:45:03;29.40;10.70
1055;DHT22;516;51.482;7.120;2022-08-03T08:47:36;29.90;12.00
1055;DHT22;516;51.482;7.120;2022-08-03T08:50:03;28.90;9.30
1055;DHT22;516;51.482;7.120;2022-08-03T08:52:30;29.90;9.40
1055;DHT22;516;51.482;7.120;2022-08-03T08:55:03;28.90;10.10
1055;DHT22;516;51.482;7.120;2022-08-03T08:57:36;28.70;10.90
1055;DHT22;516;51.482;7.120;2022-08-03T09:00:08;28.90;11.50
1055;DHT22;516;51.482;7.120;2022-08-03T09:02:34;28.90;11.30
1055;DHT22;516;51.482;7.120;2022-08-03T09:05:01;29.70;9.30
1055;DHT22;516;51.482;7.120;2022-08-03T09:07:27;29.60;9.20
1055;DHT22;516;51.482;7.120;2022-08-03T09:09:53;29.30;7.30
1055;DHT22;516;51.482;7.120;2022-08-03T09:12:19;29.10;7.30
1055;DHT22;516;51.482;7.120;2022-08-03T09:14:45;28.90;8.30
1055;DHT22;516;51.482;7.120;2022-08-03T09:17:10;30.20;7.80
1055;DHT22;516;51.482;7.120;2022-08-03T09:19:36;29.10;8.20
1055;DHT22;516;51.482;7.120;2022-08-03T09:22:10;29.70;6.90
1055;DHT22;516;51.482;7.120;2022-08-03T09:24:38;30.90;6.50
1055;DHT22;516;51.482;7.120;2022-08-03T09:27:17;31.00;5.20
1055;DHT22;516;51.482;7.120;2022-08-03T09:29:47;31.00;6.70
1055;DHT22;516;51.482;7.120;2022-08-03T09:32:13;30.30;3.60
1055;DHT22;516;51.482;7.120;2022-08-03T09:34:38;30.90;4.90
1055;DHT22;516;51.482;7.120;2022-08-03T09:37:12;31.20;3.20
1055;DHT22;516;51.482;7.120;2022-08-03T09:39:39;31.50;3.00
1055;DHT22;516;51.482;7.120;2022-08-03T09:42:07;30.90;2.00
1055;DHT22;516;51.482;7.120;2022-08-03T09:44:34;30.80;3.10
1055;DHT22;516;51.482;7.120;2022-08-03T09:47:01;31.30;2.50
1055;DHT22;516;51.482;7.120;2022-08-03T09:49:26;31.90;2.40
1055;DHT22;516;51.482;7.120;2022-08-03T09:51:53;31.00;1.00
1055;DHT22;516;51.482;7.120;2022-08-03T09:54:27;32.10;1.60
1055;DHT22;516;51.482;7.120;2022-08-03T09:56:53;31.70;1.10
1055;DHT22;516;51.482;7.120;2022-08-03T09:59:26;32.80;1.00
1055;DHT22;516;51.482;7.120;2022-08-03T10:01:53;32.20;1.00
1055;DHT22;516;51.482;7.120;2022-08-03T10:04:19;31.10;1.10
1055;DHT22;516;51.482;7.120;2022-08-03T10:07:01;29.80;1.60
1055;DHT22;516;51.482;7.120;2022-08-03T10:09:27;30.20;2.10
1055;DHT22;516;51.482;7.120;2022-08-03T10:11:53;30.30;2.20
1055;DHT22;516;51.482;7.120;2022-08-03T10:14:19;30.90;1.90
1055;DHT22;516;51.482;7.120;2022-08-03T10:16:48;31.40;2.70
1055;DHT22;516;51.482;7.120;2022-08-03T10:19:15;31.20;2.20
1055;DHT22;516;51.482;7.120;2022-08-03T10:21:55;31.10;2.90
1055;DHT22;516;51.482;7.120;2022-08-03T10:24:26;31.60;1.00
1055;DHT22;516;51.482;7.120;2022-08-03T10:27:01;30.70;1.00
1055;DHT22;516;51.482;7.120;2022-08-03T10:29:28;31.30;1.00
1055;DHT22;516;51.482;7.120;2022-08-03T10:32:00;32.10;1.00
1055;DHT22;516;51.482;7.120;2022-08-03T10:34:33;31.20;1.00
1055;DHT22;516;51.482;7.120;2022-08-03T10:37:01;30.80;1.00
1055;DHT22;516;51.482;7.120;2022-08-03T10:39:28;30.00;1.00
1055;DHT22;516;51.482;7.120;2022-08-03T10:41:55;31.20;1.60
1055;DHT22;516;51.482;7.120;2022-08-03T10:44:24;31.70;1.00
1055;DHT22;516;51.482;7.120;2022-08-03T10:46:51;31.30;1.00
1055;DHT22;516;51.482;7.120;2022-08-03T10:49:18;31.00;1.00
1055;DHT22;516;51.482;7.120;2022-08-03T10:51:45;31.10;1.00
1055;DHT22;516;51.482;7.120;2022-08-03T10:57:01;31.30;1.00
1055;DHT22;516;51.482;7.120;2022-08-03T11:02:12;31.40;1.00
1055;DHT22;516;51.482;7.120;2022-08-03T11:04:39;32.00;1.00
1055;DHT22;516;51.482;7.120;2022-08-03T11:07:22;32.10;1.00
1055;DHT22;516;51.482;7.120;2022-08-03T11:09:53;31.50;1.00
1055;DHT22;516;51.482;7.120;2022-08-03T11:14:49;32.60;1.00
1055;DHT22;516;51.482;7.120;2022-08-03T11:17:16;31.10;1.00
1055;DHT22;516;51.482;7.120;2022-08-03T11:19:50;31.40;1.00
1055;DHT22;516;51.482;7.120;2022-08-03T11:22:17;31.70;1.00
1055;DHT22;516;51.482;7.120;2022-08-03T11:30:06;31.60;1.00
1055;DHT22;516;51.482;7.120;2022-08-03T11:46:09;32.40;1.00
1055;DHT22;516;51.482;7.120;2022-08-03T11:48:48;32.70;1.00
1055;DHT22;516;51.482;7.120;2022-08-03T11:51:26;32.40;1.00
1055;DHT22;516;51.482;7.120;2022-08-03T11:54:02;32.30;1.00
1055;DHT22;516;51.482;7.120;2022-08-03T11:56:46;32.20;1.00
1055;DHT22;516;51.482;7.120;2022-08-03T11:59:12;32.20;1.00
1055;DHT22;516;51.482;7.120;2022-08-03T12:01:38;32.70;1.00
1055;DHT22;516;51.482;7.120;2022-08-03T12:04:05;32.80;1.00
1055;DHT22;516;51.482;7.120;2022-08-03T12:06:31;33.00;1.00
1055;DHT22;516;51.482;7.120;2022-08-03T12:09:17;33.00;1.00
1055;DHT22;516;51.482;7.120;2022-08-03T12:11:46;33.00;1.00
1055;DHT22;516;51.482;7.120;2022-08-03T12:14:16;33.00;1.00
1055;DHT22;516;51.482;7.120;2022-08-03T12:16:46;33.00;1.00
1055;DHT22;516;51.482;7.120;2022-08-03T12:19:12;33.30;1.00
1055;DHT22;516;51.482;7.120;2022-08-03T12:21:58;33.50;1.00
1055;DHT22;516;51.482;7.120;2022-08-03T12:24:23;32.80;1.00
1055;DHT22;516;51.482;7.120;2022-08-03T12:26:52;33.80;1.00
1055;DHT22;516;51.482;7.120;2022-08-03T12:29:20;34.20;1.00
1055;DHT22;516;51.482;7.120;2022-08-03T12:31:46;34.80;1.00
1055;DHT22;516;51.482;7.120;2022-08-03T12:34:12;33.60;1.00
1055;DHT22;516;51.482;7.120;2022-08-03T12:36:49;32.40;1.00
1055;DHT22;516;51.482;7.120;2022-08-03T12:39:15;33.70;1.00
1055;DHT22;516;51.482;7.120;2022-08-03T12:41:41;34.60;1.00
1055;DHT22;516;51.482;7.120;2022-08-03T12:44:08;34.00;1.00
1055;DHT22;516;51.482;7.120;2022-08-03T12:46:40;33.30;1.00
1055;DHT22;516;51.482;7.120;2022-08-03T12:49:14;33.90;1.00
1055;DHT22;516;51.482;7.120;2022-08-03T12:54:08;33.70;1.00
1055;DHT22;516;51.482;7.120;2022-08-03T12:56:34;34.10;1.00
1055;DHT22;516;51.482;7.120;2022-08-03T12:59:22;33.30;1.00
1055;DHT22;516;51.482;7.120;2022-08-03T13:01:45;34.10;1.00
1055;DHT22;516;51.482;7.120;2022-08-03T13:04:11;34.00;1.00
1055;DHT22;516;51.482;7.120;2022-08-03T13:06:37;34.00;1.00
1055;DHT22;516;51.482;7.120;2022-08-03T13:09:04;33.90;1.00
1055;DHT22;516;51.482;7.120;2022-08-03T13:11:31;33.10;1.00
1055;DHT22;516;51.482;7.120;2022-08-03T13:13:56;33.20;1.00
1055;DHT22;516;51.482;7.120;2022-08-03T13:16:22;33.70;1.00
1055;DHT22;516;51.482;7.120;2022-08-03T13:18:49;33.70;1.00
1055;DHT22;516;51.482;7.120;2022-08-03T13:21:17;34.20;1.00
1055;DHT22;516;51.482;7.120;2022-08-03T13:23:43;34.70;1.00
1055;DHT22;516;51.482;7.120;2022-08-03T13:26:10;33.90;1.00
1055;DHT22;516;51.482;7.120;2022-08-03T13:28:37;33.50;1.00
1055;DHT22;516;51.482;7.120;2022-08-03T13:31:02;33.30;1.00
1055;DHT22;516;51.482;7.120;2022-08-03T13:33:28;33.80;1.00
1055;DHT22;516;51.482;7.120;2022-08-03T13:35:54;32.80;1.00
1055;DHT22;516;51.482;7.120;2022-08-03T13:38:20;33.50;1.00
1055;DHT22;516;51.482;7.120;2022-08-03T13:40:46;34.00;1.00
1055;DHT22;516;51.482;7.120;2022-08-03T13:43:11;34.10;1.00
1055;DHT22;516;51.482;7.120;2022-08-03T13:45:38;34.20;1.00
1055;DHT22;516;51.482;7.120;2022-08-03T13:48:03;33.70;1.00
1055;DHT22;516;51.482;7.120;2022-08-03T13:50:29;33.90;1.00
1055;DHT22;516;51.482;7.120;2022-08-03T13:52:58;33.50;1.00
1055;DHT22;516;51.482;7.120;2022-08-03T13:55:24;34.60;1.00
1055;DHT22;516;51.482;7.120;2022-08-03T13:57:50;34.90;1.00
1055;DHT22;516;51.482;7.120;2022-08-03T14:00:17;33.90;1.00
1055;DHT22;516;51.482;7.120;2022-08-03T14:02:43;33.10;1.00
1055;DHT22;516;51.482;7.120;2022-08-03T14:05:08;33.50;1.00
1055;DHT22;516;51.482;7.120;2022-08-03T14:07:34;33.00;1.00
1055;DHT22;516;51.482;7.120;2022-08-03T14:10:00;33.60;1.00
1055;DHT22;516;51.482;7.120;2022-08-03T14:12:26;33.10;1.00
1055;DHT22;516;51.482;7.120;2022-08-03T14:14:52;33.40;1.00
1055;DHT22;516;51.482;7.120;2022-08-03T14:17:18;33.80;1.00
1055;DHT22;516;51.482;7.120;2022-08-03T14:19:44;33.50;1.00
1055;DHT22;516;51.482;7.120;2022-08-03T14:22:10;33.70;1.00
1055;DHT22;516;51.482;7.120;2022-08-03T14:24:35;33.40;1.00
1055;DHT22;516;51.482;7.120;2022-08-03T14:27:01;33.70;1.00
1055;DHT22;516;51.482;7.120;2022-08-03T14:29:27;33.30;1.00
1055;DHT22;516;51.482;7.120;2022-08-03T14:31:52;34.50;1.00
1055;DHT22;516;51.482;7.120;2022-08-03T14:34:18;34.70;1.00
1055;DHT22;516;51.482;7.120;2022-08-03T14:36:44;33.80;1.00
1055;DHT22;516;51.482;7.120;2022-08-03T14:39:12;33.40;1.00
1055;DHT22;516;51.482;7.120;2022-08-03T14:41:37;32.60;1.00
1055;DHT22;516;51.482;7.120;2022-08-03T14:44:03;32.80;1.00
1055;DHT22;516;51.482;7.120;2022-08-03T14:46:30;33.20;1.00
1055;DHT22;516;51.482;7.120;2022-08-03T14:48:56;32.40;1.00
1055;DHT22;516;51.482;7.120;2022-08-03T14:51:23;32.50;1.00
1055;DHT22;516;51.482;7.120;2022-08-03T14:53:48;32.50;1.00
1055;DHT22;516;51.482;7.120;2022-08-03T14:56:14;33.90;1.00
1055;DHT22;516;51.482;7.120;2022-08-03T14:58:40;34.20;1.00
1055;DHT22;516;51.482;7.120;2022-08-03T15:01:05;33.90;1.00
1055;DHT22;516;51.482;7.120;2022-08-03T15:03:31;33.30;1.00
1055;DHT22;516;51.482;7.120;2022-08-03T15:05:57;33.10;1.00
1055;DHT22;516;51.482;7.120;2022-08-03T15:08:24;33.60;1.00
1055;DHT22;516;51.482;7.120;2022-08-03T15:10:51;33.30;1.00
1055;DHT22;516;51.482;7.120;2022-08-03T15:13:17;32.80;1.00
1055;DHT22;516;51.482;7.120;2022-08-03T15:15:43;33.60;1.00
1055;DHT22;516;51.482;7.120;2022-08-03T15:18:09;33.40;1.00
1055;DHT22;516;51.482;7.120;2022-08-03T15:20:36;34.10;1.00
1055;DHT22;516;51.482;7.120;2022-08-03T15:23:02;35.10;1.00
1055;DHT22;516;51.482;7.120;2022-08-03T15:25:28;35.30;1.00
1055;DHT22;516;51.482;7.120;2022-08-03T15:27:54;35.40;1.00
1055;DHT22;516;51.482;7.120;2022-08-03T15:30:20;35.20;1.00
1055;DHT22;516;51.482;7.120;2022-08-03T15:32:45;35.40;1.00
1055;DHT22;516;51.482;7.120;2022-08-03T15:35:11;35.30;1.00
1055;DHT22;516;51.482;7.120;2022-08-03T15:37:38;36.30;1.00
1055;DHT22;516;51.482;7.120;2022-08-03T15:40:04;36.40;1.00
1055;DHT22;516;51.482;7.120;2022-08-03T15:42:31;36.40;1.00
1055;DHT22;516;51.482;7.120;2022-08-03T15:44:57;35.40;1.00
1055;DHT22;516;51.482;7.120;2022-08-03T15:47:24;35.90;1.00
1055;DHT22;516;51.482;7.120;2022-08-03T15:49:49;34.70;1.00
1055;DHT22;516;51.482;7.120;2022-08-03T15:52:15;34.80;1.00
1055;DHT22;516;51.482;7.120;2022-08-03T15:54:41;35.40;1.00
1055;DHT22;516;51.482;7.120;2022-08-03T15:57:06;35.90;1.00
1055;DHT22;516;51.482;7.120;2022-08-03T15:59:32;36.00;1.00
1055;DHT22;516;51.482;7.120;2022-08-03T16:01:58;35.40;1.00
1055;DHT22;516;51.482;7.120;2022-08-03T16:04:24;34.00;1.00
1055;DHT22;516;51.482;7.120;2022-08-03T16:06:58;34.40;1.00
1055;DHT22;516;51.482;7.120;2022-08-03T16:09:24;35.00;1.00
1055;DHT22;516;51.482;7.120;2022-08-03T16:11:50;35.00;1.00
1055;DHT22;516;51.482;7.120;2022-08-03T16:14:15;33.80;1.00
1055;DHT22;516;51.482;7.120;2022-08-03T16:16:41;33.40;1.00
1055;DHT22;516;51.482;7.120;2022-08-03T16:19:07;35.10;1.00
1055;DHT22;516;51.482;7.120;2022-08-03T16:21:33;35.50;1.00
1055;DHT22;516;51.482;7.120;2022-08-03T16:23:59;35.10;1.00
1055;DHT22;516;51.482;7.120;2022-08-03T16:26:26;34.10;1.00
1055;DHT22;516;51.482;7.120;2022-08-03T16:28:52;33.40;1.00
1055;DHT22;516;51.482;7.120;2022-08-03T16:31:17;33.90;1.00
1055;DHT22;516;51.482;7.120;2022-08-03T16:33:44;34.70;1.00
1055;DHT22;516;51.482;7.120;2022-08-03T16:36:10;35.40;1.00
1055;DHT22;516;51.482;7.120;2022-08-03T16:38:37;35.40;1.00
1055;DHT22;516;51.482;7.120;2022-08-03T16:41:03;36.20;1.00
1055;DHT22;516;51.482;7.120;2022-08-03T16:43:29;34.80;1.00
1055;DHT22;516;51.482;7.120;2022-08-03T16:45:55;35.60;1.00
1055;DHT22;516;51.482;7.120;2022-08-03T16:48:21;35.10;1.00
1055;DHT22;516;51.482;7.120;2022-08-03T16:50:47;36.20;1.00
1055;DHT22;516;51.482;7.120;2022-08-03T16:53:13;37.20;1.00
1055;DHT22;516;51.482;7.120;2022-08-03T16:55:39;34.90;1.00
1055;DHT22;516;51.482;7.120;2022-08-03T16:58:05;35.50;1.00
1055;DHT22;516;51.482;7.120;2022-08-03T17:00:32;35.90;1.00
1055;DHT22;516;51.482;7.120;2022-08-03T17:03:00;35.70;1.00
1055;DHT22;516;51.482;7.120;2022-08-03T17:05:27;34.70;1.00
1055;DHT22;516;51.482;7.120;2022-08-03T17:07:53;33.50;1.00
1055;DHT22;516;51.482;7.120;2022-08-03T17:10:19;33.10;1.00
1055;DHT22;516;51.482;7.120;2022-08-03T17:12:46;33.30;1.00
1055;DHT22;516;51.482;7.120;2022-08-03T17:15:12;33.40;1.00